Flight Track Log - Related Links

Times and Time Zones

All times are in EDT time to prevent confusion due to time zone crossing. See the JZA7927 flight status page for this flight to view local times or setup timezone preferences in your user account.

Time Position Orientation Groundspeed Altitude Reporting Facility
EDT Latitude Longitude Course Direction KTS MPH feet Rate Location/Type
Sat 06:15:11 AM 39.2000 -76.6667 North 106 122 1,300  Level Potomac TRACON
Sat 06:16:11 AM 39.2167 -76.6833 322° Northwest 97 112 2,900 1,368 Climbing Potomac TRACON
Sat 06:17:05 AM 39.2500 -76.7167 322° Northwest 115 132 3,900 1,111 Climbing Potomac TRACON
Sat 06:17:59 AM 39.2667 -76.7167 360° North 116 133 4,900 1,111 Climbing Potomac TRACON
Sat 06:18:00 AM 39.3863 -76.6667 North  Level FlightAware Approximate
Sat 06:18:53 AM 39.3000 -76.7000 21° North 128 147 5,900  Level Potomac TRACON
Sat 06:19:00 AM 39.4401 -76.6455 27° Northeast  Level FlightAware Approximate
Sat 06:19:47 AM 39.3333 -76.7000 360° North 113 130 7,200  Level Potomac TRACON
Sat 06:20:00 AM 39.4918 -76.6167 North  Level FlightAware Approximate
Sat 06:20:47 AM 39.3667 -76.6833 21° North 112 129 8,500  Level Potomac TRACON
Sat 06:21:47 AM 39.3833 -76.6833 360° North 114 131 9,500 862 Climbing Potomac TRACON
Sat 06:23:41 AM 39.4531 -76.6703 North 130 150 11,000 508 Climbing New York Center
Sat 06:24:44 AM 39.5058 -76.6586 10° North 151 174 11,000  Level New York Center
Sat 06:25:41 AM 39.5542 -76.6492 North 180 207 11,000 356 Level New York Center
Sat 06:26:42 AM 39.6108 -76.6403 North 186 214 11,700 590 Climbing New York Center
Sat 06:27:43 AM 39.6553 -76.6306 10° North 181 208 12,200 550 Climbing New York Center
Sat 06:28:42 AM 39.7100 -76.6189 North 181 208 12,800 403 Climbing New York Center
Sat 06:29:42 AM 39.7542 -76.6092 10° North 181 208 13,000 99 Climbing New York Center
Sat 06:30:43 AM 39.8153 -76.5981 North 189 217 13,000 151 Level New York Center
Sat 06:31:41 AM 39.8611 -76.5992 359° North 189 217 13,300 559 Climbing New York Center
Sat 06:32:41 AM 39.9114 -76.6331 333° Northwest 183 211 14,100 750 Climbing New York Center
Sat 06:33:41 AM 39.9478 -76.6578 332° Northwest 173 199 14,800 639 Climbing New York Center
Sat 06:34:43 AM 39.9944 -76.6861 335° Northwest 167 192 15,400 550 Climbing New York Center
Sat 06:35:41 AM 40.0306 -76.7108 332° Northwest 167 192 15,900 305 Climbing New York Center
Sat 06:36:41 AM 40.0792 -76.7422 334° Northwest 167 192 16,000 49 Climbing New York Center
Sat 06:37:43 AM 40.1236 -76.7703 334° Northwest 179 206 16,000  Level New York Center
Sat 06:38:43 AM 40.1742 -76.8019 334° Northwest 188 216 16,000  Level New York Center
Sat 06:39:41 AM 40.2247 -76.8308 336° Northwest 188 216 16,000  Level New York Center
Sat 06:40:41 AM 40.2731 -76.8650 332° Northwest 188 216 16,000  Level New York Center
Sat 06:41:41 AM 40.3233 -76.8992 333° Northwest 188 216 16,000  Level New York Center
Sat 06:42:43 AM 40.3719 -76.9256 338° Northwest 193 222 16,000  Level New York Center
Sat 06:43:41 AM 40.4242 -76.9628 332° Northwest 193 222 16,000  Level New York Center
Sat 06:44:43 AM 40.4664 -76.9911 333° Northwest 193 222 16,000  Level New York Center
Sat 06:45:44 AM 40.5111 -77.0169 336° Northwest 193 222 16,000  Level New York Center
Sat 06:46:44 AM 40.5653 -77.0547 332° Northwest 193 222 16,000  Level New York Center
Sat 06:47:43 AM 40.6197 -77.0897 334° Northwest 193 222 16,000  Level New York Center
Sat 06:48:43 AM 40.6681 -77.1217 333° Northwest 193 222 16,000  Level New York Center
Sat 06:49:42 AM 40.7164 -77.1536 333° Northwest 198 228 16,000  Level New York Center
Sat 06:50:42 AM 40.7647 -77.1853 334° Northwest 193 222 16,000  Level New York Center
Sat 06:51:42 AM 40.8128 -77.2175 333° Northwest 193 222 16,000  Level New York Center
Sat 06:52:42 AM 40.8653 -77.2497 335° Northwest 193 222 16,000  Level New York Center
Sat 06:53:42 AM 40.9156 -77.2847 332° Northwest 193 222 16,000  Level New York Center
Sat 06:54:43 AM 40.9681 -77.3172 335° Northwest 193 222 16,000  Level New York Center
Sat 06:55:41 AM 41.0203 -77.3497 335° Northwest 199 229 16,000  Level New York Center
Sat 06:56:44 AM 41.0644 -77.3817 331° Northwest 199 229 16,000  Level New York Center
Sat 06:57:41 AM 41.1167 -77.4142 335° Northwest 199 229 16,000  Level New York Center
Sat 06:58:43 AM 41.1669 -77.4467 334° Northwest 199 229 16,000 34 Level New York Center
Sat 07:00:35 AM 41.2686 -77.5164 333° Northwest 199 229 16,100 35 Climbing Cleveland Center
Sat 07:01:35 AM 41.3194 -77.5500 334° Northwest 204 235 16,100  Level Cleveland Center
Sat 07:02:35 AM 41.3703 -77.5808 336° Northwest 204 235 16,100  Level Cleveland Center
Sat 07:03:35 AM 41.4233 -77.6172 333° Northwest 204 235 16,100  Level Cleveland Center
Sat 07:04:35 AM 41.4722 -77.6511 333° Northwest 204 235 16,100  Level Cleveland Center
Sat 07:05:35 AM 41.5231 -77.6847 334° Northwest 204 235 16,100  Level Cleveland Center
Sat 07:06:35 AM 41.5742 -77.7214 332° Northwest 204 235 16,100  Level Cleveland Center
Sat 07:07:35 AM 41.6269 -77.7550 335° Northwest 204 235 16,100  Level Cleveland Center
Sat 07:08:35 AM 41.6781 -77.7889 334° Northwest 204 235 16,100  Level Cleveland Center
Sat 07:09:35 AM 41.7244 -77.8203 333° Northwest 204 235 16,100  Level Cleveland Center
Sat 07:10:35 AM 41.7775 -77.8572 333° Northwest 204 235 16,100  Level Cleveland Center
Sat 07:11:35 AM 41.8283 -77.8883 335° Northwest 204 235 16,100  Level Cleveland Center
Sat 07:12:35 AM 41.8814 -77.9253 333° Northwest 204 235 16,100  Level Cleveland Center
Sat 07:13:35 AM 41.9342 -77.9622 332° Northwest 204 235 16,100  Level Cleveland Center
Sat 07:14:35 AM 41.9872 -77.9964 334° Northwest 209 241 16,100  Level Cleveland Center
Sat 07:15:35 AM 42.0400 -78.0333 333° Northwest 204 235 16,100  Level Cleveland Center
Sat 07:16:35 AM 42.0911 -78.0706 332° Northwest 204 235 16,100  Level Cleveland Center
Sat 07:17:35 AM 42.1458 -78.1047 335° Northwest 204 235 16,100  Level Cleveland Center
Sat 07:18:35 AM 42.1989 -78.1419 333° Northwest 204 235 16,100  Level Cleveland Center
Sat 07:19:35 AM 42.2539 -78.1761 335° Northwest 204 235 16,100  Level Cleveland Center
Sat 07:20:35 AM 42.3067 -78.2136 332° Northwest 204 235 16,100 -50 Level Cleveland Center
Sat 07:21:35 AM 42.3594 -78.2508 332° Northwest 204 235 16,000 -50 Descending Cleveland Center
Sat 07:22:35 AM 42.4144 -78.2883 333° Northwest 204 235 16,000  Level Cleveland Center
Sat 07:23:35 AM 42.4694 -78.3256 333° Northwest 204 235 16,000  Level Cleveland Center
Sat 07:24:35 AM 42.5222 -78.3603 334° Northwest 204 235 16,000 -100 Level Cleveland Center
Sat 07:25:35 AM 42.5772 -78.3981 333° Northwest 204 235 15,800 -600 Descending Cleveland Center
Sat 07:26:35 AM 42.6364 -78.4411 332° Northwest 216 249 14,800 -900 Descending Cleveland Center
Sat 07:27:35 AM 42.6875 -78.5072 316° Northwest 240 276 14,000 -650 Descending Cleveland Center
Sat 07:28:35 AM 42.7367 -78.5733 315° West 245 282 13,500 -800 Descending Cleveland Center
Sat 07:29:35 AM 42.7836 -78.6425 313° West 245 282 12,400 -1,100 Descending Cleveland Center
Sat 07:30:35 AM 42.8347 -78.7089 316° Northwest 250 288 11,300 -700 Descending Cleveland Center
Sat 07:31:35 AM 42.8817 -78.7728 315° West 250 288 11,000 -150 Descending Cleveland Center
Sat 07:32:35 AM 42.9242 -78.8311 315° West 232 267 11,000  Level Cleveland Center
Sat 07:33:55 AM 42.9833 -78.9000 320° Northwest 220 253 11,000  Level Toronto Center

Login

Don't have an account? Register now (free) for customized features, flight alerts, and more!